Nrp Polar — CTEJ — position and weather

sailwx.info

Track history (hours):
 
Tides and Currents Weather Stations Pressure Air Temp Water Temp Dewpoint Dewpoint Depression Visibility Wind Speed Wind Dir Waves Ship Positions

Nrp Polar

Last reported at 2014-Nov-27 10:33 UTC. Time now 2014-Nov-29 03:37 UTC.
Position N 38°40' W 009°09'.

; draft 3 m.

Type: Sailing vessel. MMSI: 263142000.

Date/timePositionNaut miles runAvg speedWind from/ knotsBaromVisibWave heightAir tempDewpointWater temp
2014-Nov-27 10:33N 38°40' W 009°09'0 0.0
2014-Nov-27 09:33N 38°40' W 009°09'  
2014-Nov-22 15:10N 38°40' W 009°09'0 0.7
2014-Nov-22 14:34N 38°40' W 009°08'5 4.6
2014-Nov-22 13:34N 38°41' W 009°03'0 0.0
2014-Nov-22 12:34N 38°41' W 009°03'1 0.6
2014-Nov-22 11:34N 38°41' W 009°03'6 5.6
2014-Nov-22 10:34N 38°41' W 009°11'5 4.9
2014-Nov-22 09:33N 38°41' W 009°17'0 0.0
2014-Nov-21 15:31N 38°41' W 009°17'7 6.8
2014-Nov-21 14:33N 38°42' W 009°09'1 1.4
2014-Nov-21 13:33N 38°40' W 009°09'0 0.0
2014-Nov-21 12:33N 38°40' W 009°09'0 0.0
2014-Nov-21 11:33N 38°40' W 009°09'0 0.0
2014-Nov-21 10:33N 38°40' W 009°09'0 0.0
2014-Nov-21 09:33N 38°40' W 009°09'0 0.0
2014-Nov-21 08:34N 38°40' W 009°09'0 0.0
2014-Nov-20 10:34N 38°40' W 009°09'  
Track history (hours):
 
Tides and Currents Weather Stations Pressure Air Temp Water Temp Dewpoint Dewpoint Depression Visibility Wind Speed Wind Dir Waves Ship Positions

Nrp Polar

Last reported at 2014-Nov-27 10:33 UTC. Time now 2014-Nov-29 03:37 UTC.
Position N 38°40' W 009°09'.

; draft 3 m.

Type: Sailing vessel. MMSI: 263142000.

Date/timePositionNaut miles runAvg speedWind from/ knotsBaromVisibWave heightAir tempDewpointWater temp
2014-Nov-27 10:33N 38°40' W 009°09'0 0.0
2014-Nov-27 09:33N 38°40' W 009°09'  
2014-Nov-22 15:10N 38°40' W 009°09'0 0.7
2014-Nov-22 14:34N 38°40' W 009°08'5 4.6
2014-Nov-22 13:34N 38°41' W 009°03'0 0.0
2014-Nov-22 12:34N 38°41' W 009°03'1 0.6
2014-Nov-22 11:34N 38°41' W 009°03'6 5.6
2014-Nov-22 10:34N 38°41' W 009°11'5 4.9
2014-Nov-22 09:33N 38°41' W 009°17'0 0.0
2014-Nov-21 15:31N 38°41' W 009°17'7 6.8
2014-Nov-21 14:33N 38°42' W 009°09'1 1.4
2014-Nov-21 13:33N 38°40' W 009°09'0 0.0
2014-Nov-21 12:33N 38°40' W 009°09'0 0.0
2014-Nov-21 11:33N 38°40' W 009°09'0 0.0
2014-Nov-21 10:33N 38°40' W 009°09'0 0.0
2014-Nov-21 09:33N 38°40' W 009°09'0 0.0
2014-Nov-21 08:34N 38°40' W 009°09'0 0.0
2014-Nov-20 10:34N 38°40' W 009°09'  

Dump ship's entire track history